BAW221 LPFR-EGLL
Flight info
| Callsign | BAW221 |
|---|---|
| Flight time | 2h 19m |
| Altitude | 36000 |
| Route | EVURARV EVURA DCT RODAP DCT BABOV DCT BARDI N873 DELOG DCT DEGEX DCT OZNOH DCT JSY DCT REVTU UP87 ROXOG ROXO1H |
| Aircraft | A319/M-SDE3FGHIRWY/LB1 |
Departure
| Time | 2026-05-07 16:29 |
|---|---|
| Airport | Faro - Gago Coutinho International Airport (LPFR) |
Arrival
| Time | 2026-05-07 18:48 |
|---|---|
| Airport | London Heathrow Airport (EGLL) |
| Time | Latitude | Longitude | Altitude | Speed | Heading |
|---|---|---|---|---|---|
| 2026-05-07 16:11 | 37.01911 | -7.96773 | 25 ft | 0 kts | 10° |
| 2026-05-07 16:23 | 37.01891 | -7.96775 | 25 ft | 3 kts | 12° |
| 2026-05-07 16:23 | 37.01865 | -7.96781 | 25 ft | 3 kts | 27° |
| 2026-05-07 16:23 | 37.01850 | -7.96804 | 25 ft | 3 kts | 79° |
| 2026-05-07 16:23 | 37.01849 | -7.96819 | 25 ft | 0 kts | 101° |
| 2026-05-07 16:25 | 37.01846 | -7.96808 | 25 ft | 3 kts | 110° |
| 2026-05-07 16:26 | 37.01826 | -7.96758 | 25 ft | 12 kts | 118° |
| 2026-05-07 16:26 | 37.01793 | -7.96595 | 24 ft | 21 kts | 101° |
| 2026-05-07 16:26 | 37.01686 | -7.96537 | 22 ft | 20 kts | 198° |
| 2026-05-07 16:26 | 37.01607 | -7.96439 | 22 ft | 18 kts | 99° |
| 2026-05-07 16:27 | 37.01581 | -7.96274 | 21 ft | 19 kts | 101° |
| 2026-05-07 16:27 | 37.01557 | -7.96098 | 19 ft | 20 kts | 100° |
| 2026-05-07 16:27 | 37.01528 | -7.95918 | 17 ft | 21 kts | 104° |
| 2026-05-07 16:27 | 37.01417 | -7.95856 | 16 ft | 20 kts | 195° |
| 2026-05-07 16:28 | 37.01350 | -7.95950 | 18 ft | 15 kts | 275° |
| 2026-05-07 16:28 | 37.01403 | -7.96329 | 21 ft | 77 kts | 279° |
| 2026-05-07 16:28 | 37.01533 | -7.97248 | 20 ft | 135 kts | 279° |
| 2026-05-07 16:28 | 37.01738 | -7.98444 | 477 ft | 143 kts | 281° |
| 2026-05-07 16:29 | 37.01932 | -7.99663 | 1041 ft | 146 kts | 278° |
| 2026-05-07 16:29 | 37.02103 | -8.00924 | 1596 ft | 152 kts | 279° |
| 2026-05-07 16:29 | 37.02285 | -8.02280 | 1979 ft | 166 kts | 279° |
| 2026-05-07 16:29 | 37.02491 | -8.03765 | 2304 ft | 182 kts | 279° |
| 2026-05-07 16:30 | 37.02716 | -8.05393 | 2639 ft | 200 kts | 279° |
| 2026-05-07 16:30 | 37.02965 | -8.07198 | 3004 ft | 218 kts | 279° |
| 2026-05-07 16:30 | 37.03226 | -8.09065 | 3703 ft | 222 kts | 279° |
| 2026-05-07 16:30 | 37.03714 | -8.10922 | 4403 ft | 226 kts | 305° |
| 2026-05-07 16:31 | 37.04904 | -8.12165 | 5080 ft | 230 kts | 338° |
| 2026-05-07 16:31 | 37.06506 | -8.12488 | 5600 ft | 241 kts | 7° |
| 2026-05-07 16:31 | 37.08207 | -8.12130 | 6081 ft | 257 kts | 11° |
| 2026-05-07 16:31 | 37.10016 | -8.11742 | 6561 ft | 273 kts | 11° |
| 2026-05-07 16:32 | 37.11895 | -8.11352 | 7277 ft | 279 kts | 10° |
| 2026-05-07 16:32 | 37.13820 | -8.10964 | 8071 ft | 284 kts | 9° |
| 2026-05-07 16:32 | 37.15787 | -8.10571 | 8846 ft | 290 kts | 9° |
| 2026-05-07 16:32 | 37.17784 | -8.10174 | 9603 ft | 294 kts | 9° |
| 2026-05-07 16:33 | 37.19820 | -8.09772 | 10298 ft | 300 kts | 9° |
| 2026-05-07 16:33 | 37.21944 | -8.09353 | 10700 ft | 316 kts | 8° |
| 2026-05-07 16:33 | 37.24188 | -8.08914 | 11022 ft | 334 kts | 8° |
| 2026-05-07 16:33 | 37.26525 | -8.08457 | 11333 ft | 351 kts | 8° |
| 2026-05-07 16:34 | 37.29001 | -8.07972 | 11634 ft | 368 kts | 8° |
| 2026-05-07 16:34 | 37.31593 | -8.07461 | 11908 ft | 384 kts | 8° |
| 2026-05-07 16:34 | 37.34278 | -8.06930 | 12185 ft | 399 kts | 8° |
| 2026-05-07 16:34 | 37.37056 | -8.06380 | 12666 ft | 405 kts | 8° |
| 2026-05-07 16:35 | 37.39833 | -8.05828 | 13259 ft | 409 kts | 8° |
| 2026-05-07 16:35 | 37.42664 | -8.05265 | 13839 ft | 412 kts | 8° |
| 2026-05-07 16:35 | 37.45497 | -8.04697 | 14421 ft | 415 kts | 8° |
| 2026-05-07 16:35 | 37.48344 | -8.04126 | 14968 ft | 418 kts | 8° |
| 2026-05-07 16:36 | 37.51218 | -8.03549 | 15457 ft | 423 kts | 8° |
| 2026-05-07 16:36 | 37.54156 | -8.02959 | 15984 ft | 426 kts | 7° |
| 2026-05-07 16:36 | 37.57081 | -8.02374 | 16451 ft | 430 kts | 7° |
| 2026-05-07 16:36 | 37.60078 | -8.01857 | 16927 ft | 433 kts | 4° |
| 2026-05-07 16:37 | 37.63083 | -8.01521 | 17404 ft | 435 kts | 2° |
| 2026-05-07 16:37 | 37.66090 | -8.01237 | 17865 ft | 438 kts | 1° |
| 2026-05-07 16:37 | 37.69133 | -8.00960 | 18337 ft | 441 kts | 1° |
| 2026-05-07 16:37 | 37.72226 | -8.00679 | 18793 ft | 445 kts | 1° |
| 2026-05-07 16:38 | 37.75309 | -8.00401 | 19230 ft | 448 kts | 1° |
| 2026-05-07 16:38 | 37.78402 | -8.00120 | 19645 ft | 450 kts | 1° |
| 2026-05-07 16:38 | 37.81571 | -7.99828 | 20074 ft | 453 kts | 1° |
| 2026-05-07 16:38 | 37.84711 | -7.99520 | 20477 ft | 457 kts | 3° |
| 2026-05-07 16:39 | 37.87819 | -7.98593 | 20827 ft | 465 kts | 17° |
| 2026-05-07 16:39 | 37.90802 | -7.96998 | 21233 ft | 469 kts | 22° |
| 2026-05-07 16:39 | 37.93762 | -7.95247 | 21614 ft | 470 kts | 22° |
| 2026-05-07 16:39 | 37.96724 | -7.93504 | 21959 ft | 474 kts | 22° |
| 2026-05-07 16:40 | 37.99716 | -7.91788 | 22327 ft | 476 kts | 21° |
| 2026-05-07 16:40 | 38.02775 | -7.90073 | 22725 ft | 478 kts | 21° |
| 2026-05-07 16:40 | 38.05801 | -7.88401 | 23093 ft | 481 kts | 20° |
| 2026-05-07 16:40 | 38.08896 | -7.86707 | 23494 ft | 482 kts | 20° |
| 2026-05-07 16:41 | 38.12005 | -7.85013 | 23868 ft | 485 kts | 20° |
| 2026-05-07 16:41 | 38.15103 | -7.83330 | 24210 ft | 487 kts | 20° |
| 2026-05-07 16:41 | 38.18212 | -7.81643 | 24542 ft | 489 kts | 20° |
| 2026-05-07 16:41 | 38.21354 | -7.79937 | 24916 ft | 490 kts | 20° |
| 2026-05-07 16:42 | 38.24484 | -7.78235 | 25367 ft | 489 kts | 19° |
| 2026-05-07 16:42 | 38.27594 | -7.76544 | 25839 ft | 487 kts | 19° |
| 2026-05-07 16:42 | 38.30691 | -7.74858 | 26306 ft | 486 kts | 19° |
| 2026-05-07 16:42 | 38.33767 | -7.73182 | 26752 ft | 485 kts | 19° |
| 2026-05-07 16:43 | 38.36891 | -7.71478 | 27166 ft | 484 kts | 19° |
| 2026-05-07 16:43 | 38.39968 | -7.69806 | 27577 ft | 483 kts | 19° |
| 2026-05-07 16:43 | 38.43054 | -7.68122 | 27959 ft | 483 kts | 19° |
| 2026-05-07 16:43 | 38.46137 | -7.66432 | 28356 ft | 481 kts | 18° |
| 2026-05-07 16:44 | 38.49188 | -7.64773 | 28722 ft | 481 kts | 18° |
| 2026-05-07 16:44 | 38.52297 | -7.63072 | 29138 ft | 480 kts | 18° |
| 2026-05-07 16:44 | 38.55323 | -7.61419 | 29536 ft | 479 kts | 18° |
| 2026-05-07 16:44 | 38.58399 | -7.59731 | 29901 ft | 479 kts | 18° |
| 2026-05-07 16:45 | 38.61433 | -7.58064 | 30291 ft | 478 kts | 18° |
| 2026-05-07 16:45 | 38.64501 | -7.56370 | 30689 ft | 477 kts | 17° |
| 2026-05-07 16:45 | 38.67523 | -7.54714 | 31038 ft | 476 kts | 17° |
| 2026-05-07 16:45 | 38.70577 | -7.53035 | 31385 ft | 476 kts | 18° |
| 2026-05-07 16:46 | 38.73658 | -7.51336 | 31762 ft | 475 kts | 17° |
| 2026-05-07 16:46 | 38.76669 | -7.49678 | 32137 ft | 474 kts | 17° |
| 2026-05-07 16:46 | 38.79695 | -7.48001 | 32473 ft | 474 kts | 17° |
| 2026-05-07 16:46 | 38.82715 | -7.46332 | 32841 ft | 474 kts | 17° |
| 2026-05-07 16:47 | 38.85753 | -7.44652 | 33203 ft | 474 kts | 17° |
| 2026-05-07 16:47 | 38.88763 | -7.42988 | 33556 ft | 473 kts | 16° |
| 2026-05-07 16:47 | 38.91770 | -7.41322 | 33929 ft | 472 kts | 16° |
| 2026-05-07 16:47 | 38.94804 | -7.39636 | 34271 ft | 472 kts | 16° |
| 2026-05-07 16:48 | 38.97785 | -7.37983 | 34519 ft | 472 kts | 16° |
| 2026-05-07 16:48 | 39.00827 | -7.36296 | 34724 ft | 474 kts | 16° |
| 2026-05-07 16:48 | 39.03843 | -7.34621 | 34895 ft | 476 kts | 17° |
| 2026-05-07 16:48 | 39.06898 | -7.32923 | 35067 ft | 478 kts | 17° |
| 2026-05-07 16:49 | 39.09930 | -7.31233 | 35281 ft | 478 kts | 16° |
| 2026-05-07 16:49 | 39.13007 | -7.29515 | 35519 ft | 477 kts | 17° |
| 2026-05-07 16:49 | 39.16030 | -7.27828 | 35685 ft | 478 kts | 16° |
| 2026-05-07 16:49 | 39.19064 | -7.26131 | 35804 ft | 479 kts | 17° |
| 2026-05-07 16:50 | 39.22118 | -7.24424 | 35822 ft | 478 kts | 16° |
| 2026-05-07 16:50 | 39.28244 | -7.20993 | 35829 ft | 480 kts | 17° |
| 2026-05-07 16:51 | 39.34318 | -7.17583 | 35838 ft | 479 kts | 17° |
| 2026-05-07 16:51 | 39.40417 | -7.14154 | 35840 ft | 479 kts | 17° |
| 2026-05-07 16:52 | 39.46506 | -7.10724 | 35832 ft | 479 kts | 16° |
| 2026-05-07 16:52 | 39.52599 | -7.07283 | 35838 ft | 478 kts | 16° |
| 2026-05-07 16:53 | 39.58692 | -7.03840 | 35836 ft | 478 kts | 16° |
| 2026-05-07 16:53 | 39.64756 | -7.00403 | 35831 ft | 476 kts | 16° |
| 2026-05-07 16:54 | 39.70813 | -6.96963 | 35830 ft | 475 kts | 16° |
| 2026-05-07 16:54 | 39.76835 | -6.93539 | 35829 ft | 476 kts | 16° |
| 2026-05-07 16:55 | 39.82915 | -6.90072 | 35828 ft | 476 kts | 16° |
| 2026-05-07 16:55 | 39.88891 | -6.86311 | 35830 ft | 480 kts | 22° |
| 2026-05-07 16:56 | 39.94604 | -6.81852 | 35833 ft | 483 kts | 25° |
| 2026-05-07 16:56 | 40.03170 | -6.74946 | 35830 ft | 481 kts | 24° |
| 2026-05-07 16:57 | 40.08831 | -6.70390 | 35830 ft | 481 kts | 24° |
| 2026-05-07 16:57 | 40.14494 | -6.65834 | 35834 ft | 481 kts | 24° |
| 2026-05-07 16:58 | 40.20178 | -6.61251 | 35839 ft | 480 kts | 24° |
| 2026-05-07 16:58 | 40.25835 | -6.56681 | 35843 ft | 478 kts | 24° |
| 2026-05-07 16:59 | 40.31465 | -6.52123 | 35841 ft | 477 kts | 24° |
| 2026-05-07 16:59 | 40.37132 | -6.47531 | 35839 ft | 478 kts | 24° |
| 2026-05-07 17:00 | 40.42756 | -6.42959 | 35841 ft | 477 kts | 24° |
| 2026-05-07 17:00 | 40.48365 | -6.38390 | 35841 ft | 476 kts | 24° |
| 2026-05-07 17:01 | 40.53995 | -6.33799 | 35841 ft | 476 kts | 25° |
| 2026-05-07 17:01 | 40.59649 | -6.29341 | 35845 ft | 473 kts | 21° |
| 2026-05-07 17:02 | 40.65427 | -6.25321 | 35848 ft | 470 kts | 20° |
| 2026-05-07 17:02 | 40.71215 | -6.21346 | 35856 ft | 469 kts | 20° |
| 2026-05-07 17:03 | 40.76971 | -6.17370 | 35853 ft | 469 kts | 20° |
| 2026-05-07 17:03 | 40.82727 | -6.13380 | 35858 ft | 469 kts | 20° |
| 2026-05-07 17:04 | 40.88497 | -6.09373 | 35873 ft | 469 kts | 21° |
| 2026-05-07 17:04 | 40.94263 | -6.05356 | 35875 ft | 468 kts | 21° |
| 2026-05-07 17:05 | 40.99983 | -6.01361 | 35868 ft | 467 kts | 21° |
| 2026-05-07 17:05 | 41.05712 | -5.97355 | 35868 ft | 467 kts | 21° |
| 2026-05-07 17:06 | 41.11480 | -5.93314 | 35868 ft | 467 kts | 20° |
| 2026-05-07 17:06 | 41.17192 | -5.89302 | 35859 ft | 465 kts | 20° |
| 2026-05-07 17:07 | 41.22912 | -5.85279 | 35859 ft | 465 kts | 20° |
| 2026-05-07 17:07 | 41.28587 | -5.81278 | 35854 ft | 465 kts | 20° |
| 2026-05-07 17:08 | 41.34344 | -5.77213 | 35840 ft | 465 kts | 20° |
| 2026-05-07 17:08 | 41.40079 | -5.73154 | 35844 ft | 464 kts | 21° |
| 2026-05-07 17:09 | 41.45757 | -5.69126 | 35846 ft | 464 kts | 21° |
| 2026-05-07 17:09 | 41.51477 | -5.65073 | 35848 ft | 463 kts | 20° |
| 2026-05-07 17:10 | 41.57287 | -5.61528 | 35845 ft | 459 kts | 16° |
| 2026-05-07 17:10 | 41.63126 | -5.58252 | 35845 ft | 457 kts | 15° |
| 2026-05-07 17:11 | 41.68997 | -5.54953 | 35850 ft | 457 kts | 15° |
| 2026-05-07 17:11 | 41.74836 | -5.51659 | 35846 ft | 457 kts | 15° |
| 2026-05-07 17:12 | 41.80695 | -5.48341 | 35846 ft | 458 kts | 16° |
| 2026-05-07 17:12 | 41.86528 | -5.45031 | 35842 ft | 458 kts | 16° |
| 2026-05-07 17:13 | 41.92423 | -5.41677 | 35843 ft | 457 kts | 16° |
| 2026-05-07 17:13 | 41.98266 | -5.38347 | 35840 ft | 456 kts | 16° |
| 2026-05-07 17:14 | 42.04067 | -5.35033 | 35853 ft | 456 kts | 16° |
| 2026-05-07 17:14 | 42.09927 | -5.31683 | 35846 ft | 457 kts | 17° |
| 2026-05-07 17:15 | 42.15789 | -5.28322 | 35848 ft | 457 kts | 17° |
| 2026-05-07 17:15 | 42.21612 | -5.24974 | 35846 ft | 457 kts | 18° |
| 2026-05-07 17:16 | 42.27440 | -5.21618 | 35841 ft | 457 kts | 18° |
| 2026-05-07 17:16 | 42.33289 | -5.18241 | 35863 ft | 456 kts | 18° |
| 2026-05-07 17:17 | 42.39118 | -5.14874 | 35864 ft | 457 kts | 18° |
| 2026-05-07 17:17 | 42.44955 | -5.11491 | 35861 ft | 457 kts | 18° |
| 2026-05-07 17:18 | 42.50766 | -5.08120 | 35865 ft | 457 kts | 18° |
| 2026-05-07 17:18 | 42.56606 | -5.04723 | 35865 ft | 459 kts | 19° |
| 2026-05-07 17:19 | 42.62479 | -5.01296 | 35877 ft | 458 kts | 19° |
| 2026-05-07 17:19 | 42.68288 | -4.97901 | 35878 ft | 458 kts | 19° |
| 2026-05-07 17:20 | 42.74139 | -4.94479 | 35878 ft | 458 kts | 19° |
| 2026-05-07 17:20 | 42.79957 | -4.91068 | 35882 ft | 458 kts | 19° |
| 2026-05-07 17:21 | 42.85841 | -4.87611 | 35884 ft | 459 kts | 19° |
| 2026-05-07 17:21 | 42.91681 | -4.84171 | 35893 ft | 460 kts | 19° |
| 2026-05-07 17:22 | 42.97549 | -4.80707 | 35890 ft | 460 kts | 19° |
| 2026-05-07 17:22 | 43.03411 | -4.77240 | 35898 ft | 460 kts | 19° |
| 2026-05-07 17:23 | 43.09244 | -4.73782 | 35893 ft | 460 kts | 19° |
| 2026-05-07 17:23 | 43.15136 | -4.70284 | 35888 ft | 461 kts | 19° |
| 2026-05-07 17:24 | 43.20986 | -4.66801 | 35887 ft | 461 kts | 20° |
| 2026-05-07 17:24 | 43.26855 | -4.63298 | 35883 ft | 462 kts | 20° |
| 2026-05-07 17:25 | 43.32725 | -4.59790 | 35869 ft | 462 kts | 20° |
| 2026-05-07 17:25 | 43.38627 | -4.56255 | 35865 ft | 462 kts | 20° |
| 2026-05-07 17:26 | 43.44494 | -4.52732 | 35854 ft | 463 kts | 20° |
| 2026-05-07 17:26 | 43.50392 | -4.49185 | 35850 ft | 463 kts | 20° |
| 2026-05-07 17:27 | 43.56261 | -4.45648 | 35845 ft | 463 kts | 20° |
| 2026-05-07 17:27 | 43.62151 | -4.42089 | 35848 ft | 463 kts | 20° |
| 2026-05-07 17:28 | 43.68053 | -4.38517 | 35851 ft | 463 kts | 20° |
| 2026-05-07 17:28 | 43.73927 | -4.34954 | 35857 ft | 463 kts | 21° |
| 2026-05-07 17:29 | 43.79835 | -4.31362 | 35858 ft | 464 kts | 21° |
| 2026-05-07 17:29 | 43.85747 | -4.27760 | 35853 ft | 465 kts | 21° |
| 2026-05-07 17:30 | 43.88673 | -4.25974 | 36035 ft | 464 kts | 21° |
| 2026-05-07 17:30 | 43.91633 | -4.24164 | 35953 ft | 463 kts | 21° |
| 2026-05-07 17:30 | 43.97503 | -4.20571 | 35890 ft | 463 kts | 21° |
| 2026-05-07 17:31 | 44.03392 | -4.16956 | 35876 ft | 463 kts | 21° |
| 2026-05-07 17:31 | 44.09267 | -4.13342 | 35877 ft | 463 kts | 21° |
| 2026-05-07 17:32 | 44.15165 | -4.09708 | 35876 ft | 463 kts | 21° |
| 2026-05-07 17:32 | 44.21021 | -4.06095 | 35878 ft | 463 kts | 21° |
| 2026-05-07 17:33 | 44.26913 | -4.02457 | 35870 ft | 463 kts | 20° |
| 2026-05-07 17:33 | 44.32922 | -3.99396 | 35869 ft | 462 kts | 14° |
| 2026-05-07 17:34 | 44.39155 | -3.97284 | 35873 ft | 459 kts | 8° |
| 2026-05-07 17:34 | 44.45409 | -3.95813 | 35876 ft | 459 kts | 7° |
| 2026-05-07 17:35 | 44.51726 | -3.94382 | 35886 ft | 459 kts | 7° |
| 2026-05-07 17:35 | 44.57998 | -3.92948 | 35894 ft | 459 kts | 7° |
| 2026-05-07 17:36 | 44.64311 | -3.91496 | 35898 ft | 460 kts | 7° |
| 2026-05-07 17:36 | 44.70595 | -3.90044 | 35902 ft | 460 kts | 7° |
| 2026-05-07 17:37 | 44.76896 | -3.88583 | 35902 ft | 460 kts | 7° |
| 2026-05-07 17:37 | 44.83218 | -3.87113 | 35905 ft | 460 kts | 7° |
| 2026-05-07 17:38 | 44.89494 | -3.85652 | 35906 ft | 461 kts | 7° |
| 2026-05-07 17:38 | 44.95815 | -3.84177 | 35909 ft | 461 kts | 7° |
| 2026-05-07 17:39 | 45.02122 | -3.82700 | 35909 ft | 461 kts | 7° |
| 2026-05-07 17:39 | 45.08448 | -3.81218 | 35913 ft | 461 kts | 7° |
| 2026-05-07 17:40 | 45.14770 | -3.79738 | 35913 ft | 462 kts | 7° |
| 2026-05-07 17:40 | 45.21082 | -3.78253 | 35916 ft | 462 kts | 7° |
| 2026-05-07 17:41 | 45.27409 | -3.76761 | 35906 ft | 462 kts | 7° |
| 2026-05-07 17:41 | 45.33731 | -3.75265 | 35912 ft | 462 kts | 7° |
| 2026-05-07 17:42 | 45.40075 | -3.73761 | 35913 ft | 462 kts | 7° |
| 2026-05-07 17:42 | 45.46390 | -3.72260 | 35906 ft | 463 kts | 7° |
| 2026-05-07 17:43 | 45.52737 | -3.70751 | 35918 ft | 463 kts | 7° |
| 2026-05-07 17:43 | 45.59095 | -3.69234 | 35921 ft | 463 kts | 7° |
| 2026-05-07 17:44 | 45.65425 | -3.67719 | 35913 ft | 464 kts | 7° |
| 2026-05-07 17:44 | 45.71756 | -3.66200 | 35917 ft | 464 kts | 7° |
| 2026-05-07 17:45 | 45.78109 | -3.64673 | 35924 ft | 464 kts | 7° |
| 2026-05-07 17:45 | 45.84488 | -3.63138 | 35926 ft | 464 kts | 7° |
| 2026-05-07 17:46 | 45.90794 | -3.61615 | 35936 ft | 463 kts | 7° |
| 2026-05-07 17:46 | 45.97169 | -3.60076 | 35931 ft | 464 kts | 7° |
| 2026-05-07 17:47 | 46.03492 | -3.58546 | 35934 ft | 464 kts | 7° |
| 2026-05-07 17:47 | 46.09848 | -3.57002 | 35931 ft | 465 kts | 7° |
| 2026-05-07 17:48 | 46.16227 | -3.55447 | 35937 ft | 465 kts | 7° |
| 2026-05-07 17:48 | 46.22601 | -3.53890 | 35929 ft | 465 kts | 7° |
| 2026-05-07 17:49 | 46.28962 | -3.52331 | 35935 ft | 466 kts | 7° |
| 2026-05-07 17:49 | 46.35329 | -3.50768 | 35942 ft | 465 kts | 7° |
| 2026-05-07 17:50 | 46.41694 | -3.49201 | 35943 ft | 465 kts | 7° |
| 2026-05-07 17:50 | 46.48043 | -3.47635 | 35946 ft | 466 kts | 7° |
| 2026-05-07 17:51 | 46.54444 | -3.46054 | 35946 ft | 466 kts | 7° |
| 2026-05-07 17:51 | 46.60833 | -3.44470 | 35946 ft | 466 kts | 7° |
| 2026-05-07 17:52 | 46.67188 | -3.42892 | 35949 ft | 466 kts | 7° |
| 2026-05-07 17:52 | 46.73558 | -3.41305 | 35947 ft | 466 kts | 7° |
| 2026-05-07 17:53 | 46.79932 | -3.39710 | 35953 ft | 467 kts | 7° |
| 2026-05-07 17:53 | 46.86327 | -3.38109 | 35955 ft | 467 kts | 7° |
| 2026-05-07 17:54 | 46.92684 | -3.36512 | 35960 ft | 467 kts | 7° |
| 2026-05-07 17:54 | 46.99103 | -3.34899 | 35949 ft | 467 kts | 8° |
| 2026-05-07 17:55 | 47.05474 | -3.33297 | 35959 ft | 467 kts | 8° |
| 2026-05-07 17:55 | 47.11852 | -3.31691 | 35962 ft | 467 kts | 8° |
| 2026-05-07 17:56 | 47.18255 | -3.30074 | 35957 ft | 467 kts | 8° |
| 2026-05-07 17:56 | 47.24628 | -3.28458 | 35952 ft | 467 kts | 8° |
| 2026-05-07 17:57 | 47.29953 | -3.27102 | 35955 ft | 468 kts | 8° |
| 2026-05-07 17:57 | 47.37415 | -3.25197 | 35959 ft | 469 kts | 8° |
| 2026-05-07 17:58 | 47.43856 | -3.23551 | 35954 ft | 469 kts | 8° |
| 2026-05-07 17:58 | 47.50285 | -3.21901 | 35958 ft | 469 kts | 8° |
| 2026-05-07 17:59 | 47.56669 | -3.20257 | 35956 ft | 469 kts | 8° |
| 2026-05-07 17:59 | 47.63092 | -3.18600 | 35956 ft | 469 kts | 8° |
| 2026-05-07 18:00 | 47.69478 | -3.16611 | 35961 ft | 470 kts | 14° |
| 2026-05-07 18:00 | 47.75691 | -3.13551 | 35960 ft | 471 kts | 21° |
| 2026-05-07 18:01 | 47.81604 | -3.09424 | 35954 ft | 473 kts | 28° |
| 2026-05-07 18:01 | 47.87267 | -3.04550 | 35955 ft | 474 kts | 30° |
| 2026-05-07 18:02 | 47.95740 | -2.97050 | 35958 ft | 474 kts | 30° |
| 2026-05-07 18:03 | 48.01408 | -2.92053 | 35957 ft | 475 kts | 30° |
| 2026-05-07 18:03 | 48.07083 | -2.87055 | 35953 ft | 475 kts | 30° |
| 2026-05-07 18:04 | 48.12766 | -2.82052 | 35960 ft | 475 kts | 29° |
| 2026-05-07 18:04 | 48.18473 | -2.77024 | 35956 ft | 475 kts | 29° |
| 2026-05-07 18:05 | 48.24137 | -2.72005 | 35960 ft | 475 kts | 29° |
| 2026-05-07 18:05 | 48.29789 | -2.66978 | 35960 ft | 475 kts | 30° |
| 2026-05-07 18:06 | 48.35454 | -2.61922 | 35771 ft | 476 kts | 30° |
| 2026-05-07 18:06 | 48.41145 | -2.56829 | 35883 ft | 476 kts | 29° |
| 2026-05-07 18:07 | 48.46922 | -2.52063 | 35932 ft | 476 kts | 24° |
| 2026-05-07 18:07 | 48.52987 | -2.48118 | 35942 ft | 475 kts | 20° |
| 2026-05-07 18:08 | 48.59079 | -2.44367 | 35957 ft | 475 kts | 20° |
| 2026-05-07 18:08 | 48.65175 | -2.40591 | 35966 ft | 475 kts | 20° |
| 2026-05-07 18:09 | 48.71275 | -2.36789 | 35949 ft | 475 kts | 20° |
| 2026-05-07 18:09 | 48.77338 | -2.32994 | 35948 ft | 474 kts | 21° |
| 2026-05-07 18:10 | 48.83437 | -2.29165 | 35960 ft | 473 kts | 21° |
| 2026-05-07 18:10 | 48.89513 | -2.25340 | 35957 ft | 474 kts | 21° |
| 2026-05-07 18:11 | 48.95561 | -2.21522 | 35963 ft | 474 kts | 21° |
| 2026-05-07 18:11 | 49.01658 | -2.17662 | 35962 ft | 475 kts | 21° |
| 2026-05-07 18:12 | 49.07730 | -2.13807 | 35968 ft | 475 kts | 21° |
| 2026-05-07 18:12 | 49.13811 | -2.09936 | 35971 ft | 474 kts | 21° |
| 2026-05-07 18:13 | 49.19894 | -2.06047 | 35969 ft | 474 kts | 22° |
| 2026-05-07 18:13 | 49.25784 | -2.01589 | 35966 ft | 474 kts | 27° |
| 2026-05-07 18:14 | 49.31549 | -1.96694 | 35973 ft | 474 kts | 28° |
| 2026-05-07 18:14 | 49.37261 | -1.91806 | 35975 ft | 474 kts | 28° |
| 2026-05-07 18:15 | 49.43004 | -1.86899 | 35969 ft | 474 kts | 28° |
| 2026-05-07 18:15 | 49.48771 | -1.81969 | 35972 ft | 475 kts | 28° |
| 2026-05-07 18:16 | 49.54592 | -1.77310 | 35982 ft | 474 kts | 22° |
| 2026-05-07 18:16 | 49.60767 | -1.73914 | 35983 ft | 472 kts | 13° |
| 2026-05-07 18:17 | 49.67197 | -1.71991 | 35985 ft | 470 kts | 4° |
| 2026-05-07 18:17 | 49.73687 | -1.71300 | 35986 ft | 469 kts | 1° |
| 2026-05-07 18:18 | 49.80201 | -1.70810 | 35985 ft | 469 kts | 1° |
| 2026-05-07 18:18 | 49.83446 | -1.70551 | 35857 ft | 469 kts | 1° |
| 2026-05-07 18:18 | 49.86700 | -1.70283 | 35715 ft | 469 kts | 1° |
| 2026-05-07 18:18 | 49.89912 | -1.70014 | 35574 ft | 469 kts | 1° |
| 2026-05-07 18:19 | 49.93176 | -1.69737 | 35428 ft | 469 kts | 1° |
| 2026-05-07 18:19 | 49.96401 | -1.69031 | 35281 ft | 471 kts | 12° |
| 2026-05-07 18:19 | 49.99479 | -1.67511 | 35135 ft | 466 kts | 20° |
| 2026-05-07 18:19 | 50.02457 | -1.65573 | 34863 ft | 463 kts | 22° |
| 2026-05-07 18:20 | 50.05409 | -1.63559 | 34397 ft | 463 kts | 22° |
| 2026-05-07 18:20 | 50.08336 | -1.61555 | 33784 ft | 464 kts | 22° |
| 2026-05-07 18:20 | 50.11285 | -1.59547 | 33100 ft | 464 kts | 22° |
| 2026-05-07 18:20 | 50.14249 | -1.57543 | 32387 ft | 464 kts | 22° |
| 2026-05-07 18:21 | 50.17180 | -1.55568 | 31683 ft | 463 kts | 22° |
| 2026-05-07 18:21 | 50.20107 | -1.53597 | 30951 ft | 464 kts | 22° |
| 2026-05-07 18:21 | 50.23074 | -1.51601 | 30196 ft | 464 kts | 22° |
| 2026-05-07 18:21 | 50.26024 | -1.49615 | 29401 ft | 464 kts | 22° |
| 2026-05-07 18:22 | 50.28960 | -1.47638 | 28564 ft | 465 kts | 22° |
| 2026-05-07 18:22 | 50.30953 | -1.46294 | 27969 ft | 466 kts | 22° |
| 2026-05-07 18:22 | 50.34890 | -1.43635 | 26778 ft | 469 kts | 22° |
| 2026-05-07 18:22 | 50.37893 | -1.41605 | 25826 ft | 471 kts | 22° |
| 2026-05-07 18:23 | 50.40901 | -1.39570 | 24836 ft | 474 kts | 22° |
| 2026-05-07 18:23 | 50.43922 | -1.37525 | 23975 ft | 472 kts | 22° |
| 2026-05-07 18:23 | 50.46906 | -1.35499 | 23383 ft | 470 kts | 22° |
| 2026-05-07 18:23 | 50.49869 | -1.33485 | 22784 ft | 466 kts | 22° |
| 2026-05-07 18:24 | 50.52815 | -1.31480 | 22173 ft | 461 kts | 22° |
| 2026-05-07 18:24 | 50.55721 | -1.29498 | 21564 ft | 456 kts | 22° |
| 2026-05-07 18:24 | 50.58631 | -1.27511 | 20949 ft | 451 kts | 22° |
| 2026-05-07 18:24 | 50.61474 | -1.25565 | 20340 ft | 447 kts | 22° |
| 2026-05-07 18:25 | 50.64287 | -1.23636 | 19732 ft | 443 kts | 22° |
| 2026-05-07 18:25 | 50.67081 | -1.21717 | 19120 ft | 439 kts | 22° |
| 2026-05-07 18:25 | 50.69864 | -1.19805 | 18504 ft | 436 kts | 22° |
| 2026-05-07 18:25 | 50.72611 | -1.17916 | 17892 ft | 432 kts | 22° |
| 2026-05-07 18:26 | 50.75370 | -1.16019 | 17266 ft | 430 kts | 22° |
| 2026-05-07 18:26 | 50.78084 | -1.14150 | 16640 ft | 427 kts | 22° |
| 2026-05-07 18:26 | 50.80786 | -1.12286 | 16016 ft | 424 kts | 22° |
| 2026-05-07 18:26 | 50.83488 | -1.10420 | 15392 ft | 422 kts | 23° |
| 2026-05-07 18:27 | 50.86125 | -1.08596 | 14775 ft | 419 kts | 23° |
| 2026-05-07 18:27 | 50.88798 | -1.06745 | 14240 ft | 413 kts | 23° |
| 2026-05-07 18:27 | 50.91391 | -1.04945 | 13845 ft | 403 kts | 23° |
| 2026-05-07 18:27 | 50.93905 | -1.03195 | 13609 ft | 391 kts | 23° |
| 2026-05-07 18:28 | 50.96360 | -1.01483 | 13363 ft | 379 kts | 23° |
| 2026-05-07 18:28 | 50.98714 | -0.99821 | 13155 ft | 367 kts | 25° |
| 2026-05-07 18:28 | 51.00817 | -0.97701 | 13015 ft | 355 kts | 38° |
| 2026-05-07 18:28 | 51.02573 | -0.95035 | 12993 ft | 338 kts | 47° |
| 2026-05-07 18:29 | 51.04084 | -0.92341 | 13007 ft | 323 kts | 49° |
| 2026-05-07 18:29 | 51.05536 | -0.89688 | 13015 ft | 310 kts | 49° |
| 2026-05-07 18:29 | 51.06939 | -0.87129 | 13023 ft | 309 kts | 49° |
| 2026-05-07 18:29 | 51.08351 | -0.84576 | 13024 ft | 309 kts | 49° |
| 2026-05-07 18:30 | 51.09768 | -0.82030 | 13026 ft | 309 kts | 49° |
| 2026-05-07 18:30 | 51.11198 | -0.79470 | 13027 ft | 309 kts | 49° |
| 2026-05-07 18:30 | 51.12626 | -0.76913 | 13026 ft | 309 kts | 49° |
| 2026-05-07 18:30 | 51.14057 | -0.74349 | 13027 ft | 309 kts | 49° |
| 2026-05-07 18:31 | 51.15467 | -0.71824 | 13028 ft | 309 kts | 49° |
| 2026-05-07 18:31 | 51.16898 | -0.69259 | 13030 ft | 309 kts | 49° |
| 2026-05-07 18:31 | 51.18312 | -0.66721 | 13029 ft | 308 kts | 49° |
| 2026-05-07 18:31 | 51.19733 | -0.64168 | 13028 ft | 308 kts | 49° |
| 2026-05-07 18:32 | 51.21144 | -0.61623 | 13028 ft | 308 kts | 49° |
| 2026-05-07 18:32 | 51.22552 | -0.59083 | 12882 ft | 299 kts | 48° |
| 2026-05-07 18:32 | 51.23972 | -0.56799 | 12515 ft | 288 kts | 47° |
| 2026-05-07 18:32 | 51.25269 | -0.54421 | 12097 ft | 278 kts | 51° |
| 2026-05-07 18:33 | 51.26455 | -0.52086 | 11671 ft | 270 kts | 51° |
| 2026-05-07 18:33 | 51.27605 | -0.49787 | 11244 ft | 265 kts | 52° |
| 2026-05-07 18:33 | 51.28755 | -0.47484 | 10816 ft | 262 kts | 51° |
| 2026-05-07 18:33 | 51.30036 | -0.45514 | 10370 ft | 261 kts | 28° |
| 2026-05-07 18:34 | 51.31757 | -0.44632 | 9941 ft | 259 kts | 6° |
| 2026-05-07 18:34 | 51.33535 | -0.44397 | 9522 ft | 258 kts | 2° |
| 2026-05-07 18:34 | 51.35324 | -0.44288 | 9093 ft | 257 kts | 1° |
| 2026-05-07 18:34 | 51.37077 | -0.44213 | 8670 ft | 256 kts | 1° |
| 2026-05-07 18:35 | 51.38872 | -0.44150 | 8240 ft | 255 kts | 0° |
| 2026-05-07 18:35 | 51.40617 | -0.44085 | 8036 ft | 247 kts | 1° |
| 2026-05-07 18:35 | 51.42313 | -0.44028 | 8035 ft | 246 kts | 1° |
| 2026-05-07 18:35 | 51.44024 | -0.43986 | 8032 ft | 246 kts | 0° |
| 2026-05-07 18:36 | 51.45734 | -0.43939 | 8032 ft | 246 kts | 360° |
| 2026-05-07 18:36 | 51.47407 | -0.44394 | 8012 ft | 245 kts | 334° |
| 2026-05-07 18:36 | 51.48709 | -0.46090 | 8024 ft | 246 kts | 303° |
| 2026-05-07 18:36 | 51.49303 | -0.48636 | 8031 ft | 245 kts | 272° |
| 2026-05-07 18:37 | 51.49015 | -0.51274 | 8014 ft | 245 kts | 243° |
| 2026-05-07 18:37 | 51.47946 | -0.53377 | 7783 ft | 244 kts | 218° |
| 2026-05-07 18:37 | 51.46544 | -0.54925 | 7543 ft | 244 kts | 212° |
| 2026-05-07 18:37 | 51.45108 | -0.56330 | 7294 ft | 243 kts | 211° |
| 2026-05-07 18:38 | 51.43656 | -0.57703 | 7075 ft | 241 kts | 211° |
| 2026-05-07 18:38 | 51.42372 | -0.59383 | 7029 ft | 241 kts | 232° |
| 2026-05-07 18:38 | 51.41431 | -0.61602 | 6823 ft | 241 kts | 239° |
| 2026-05-07 18:38 | 51.40577 | -0.63902 | 6542 ft | 241 kts | 240° |
| 2026-05-07 18:39 | 51.39745 | -0.66210 | 6221 ft | 243 kts | 240° |
| 2026-05-07 18:39 | 51.38900 | -0.68580 | 5896 ft | 245 kts | 240° |
| 2026-05-07 18:39 | 51.38065 | -0.70956 | 5573 ft | 247 kts | 241° |
| 2026-05-07 18:39 | 51.37471 | -0.73526 | 5231 ft | 249 kts | 265° |
| 2026-05-07 18:40 | 51.37676 | -0.76219 | 4975 ft | 246 kts | 286° |
| 2026-05-07 18:40 | 51.38205 | -0.78809 | 4727 ft | 244 kts | 290° |
| 2026-05-07 18:40 | 51.38790 | -0.81364 | 4475 ft | 243 kts | 290° |
| 2026-05-07 18:40 | 51.39381 | -0.83877 | 4224 ft | 242 kts | 290° |
| 2026-05-07 18:41 | 51.39972 | -0.86381 | 4006 ft | 238 kts | 291° |
| 2026-05-07 18:41 | 51.40628 | -0.88780 | 3969 ft | 235 kts | 305° |
| 2026-05-07 18:41 | 51.41806 | -0.90420 | 3947 ft | 221 kts | 339° |
| 2026-05-07 18:41 | 51.43234 | -0.90703 | 3944 ft | 204 kts | 15° |
| 2026-05-07 18:42 | 51.44387 | -0.89642 | 3996 ft | 188 kts | 50° |
| 2026-05-07 18:42 | 51.45150 | -0.87937 | 4014 ft | 187 kts | 59° |
| 2026-05-07 18:42 | 51.45825 | -0.86158 | 3986 ft | 187 kts | 60° |
| 2026-05-07 18:42 | 51.46480 | -0.84377 | 3976 ft | 187 kts | 60° |
| 2026-05-07 18:43 | 51.47164 | -0.82602 | 3969 ft | 186 kts | 66° |
| 2026-05-07 18:43 | 51.47503 | -0.80607 | 3927 ft | 186 kts | 82° |
| 2026-05-07 18:43 | 51.47621 | -0.78541 | 3693 ft | 184 kts | 86° |
| 2026-05-07 18:43 | 51.47687 | -0.76524 | 3456 ft | 182 kts | 89° |
| 2026-05-07 18:44 | 51.47718 | -0.74497 | 3220 ft | 181 kts | 90° |
| 2026-05-07 18:44 | 51.47730 | -0.72492 | 2985 ft | 181 kts | 90° |
| 2026-05-07 18:44 | 51.47733 | -0.70478 | 2747 ft | 180 kts | 91° |
| 2026-05-07 18:44 | 51.47732 | -0.68501 | 2507 ft | 173 kts | 91° |
| 2026-05-07 18:45 | 51.47729 | -0.66621 | 2286 ft | 162 kts | 92° |
| 2026-05-07 18:45 | 51.47728 | -0.64853 | 2072 ft | 158 kts | 92° |
| 2026-05-07 18:45 | 51.47726 | -0.63092 | 1862 ft | 155 kts | 92° |
| 2026-05-07 18:45 | 51.47726 | -0.61447 | 1655 ft | 142 kts | 93° |
| 2026-05-07 18:46 | 51.47728 | -0.59928 | 1448 ft | 130 kts | 92° |
| 2026-05-07 18:46 | 51.47730 | -0.58526 | 1282 ft | 125 kts | 93° |
| 2026-05-07 18:46 | 51.47733 | -0.57133 | 1129 ft | 125 kts | 93° |
| 2026-05-07 18:46 | 51.47736 | -0.55737 | 972 ft | 124 kts | 92° |
| 2026-05-07 18:47 | 51.47740 | -0.54369 | 810 ft | 124 kts | 93° |
| 2026-05-07 18:47 | 51.47743 | -0.52972 | 644 ft | 124 kts | 92° |
| 2026-05-07 18:47 | 51.47747 | -0.51602 | 472 ft | 124 kts | 93° |
| 2026-05-07 18:47 | 51.47751 | -0.50207 | 307 ft | 124 kts | 92° |
| 2026-05-07 18:48 | 51.47749 | -0.48835 | 145 ft | 123 kts | 93° |
| 2026-05-07 18:48 | 51.47752 | -0.47516 | 78 ft | 98 kts | 85° |
| 2026-05-07 18:48 | 51.47755 | -0.46699 | 78 ft | 47 kts | 92° |
| 2026-05-07 18:48 | 51.47757 | -0.46214 | 78 ft | 39 kts | 88° |
| 2026-05-07 18:49 | 51.47752 | -0.45798 | 78 ft | 35 kts | 89° |
| 2026-05-07 18:49 | 51.47703 | -0.45473 | 78 ft | 17 kts | 167° |
| 2026-05-07 18:49 | 51.47659 | -0.45468 | 77 ft | 0 kts | 177° |
| 2026-05-07 18:51 | 51.47623 | -0.45468 | 77 ft | 15 kts | 190° |